Woodman, Wisconsin
Current Conditions -  °F | °C
As of 2:53 PM on Monday 22 Dec 2014 (Local Time) from KOVS Reporting Station
Light Rain Light Rain  
Wind Chill: 32°   Ceiling: 1200
Heat Index: 36°   Visibility: 2.5mi
Dew Point: 34°   Wind: 5mph
Humidity: 93%   Direction: NA
Pressure: 29.64"   Gusts: NA
Location:  43.09°N, 90.8°W
Report Text: KOVS 222053Z AUTO VRB04KT 2 1/2SM -RA BR OVC012 02/01 A2964 RMK AO2 SLP044 P0003 60005 T00220011 56029
Loading
Personal Weather Stations






























Interactive Weather Map New forecast layout! Learn more

10-Day Weather Forecast

Advertisements
Track Severe Weather on mobile